Latest Weather Observations for Kuitpo

IDS60901

Issued at 10:41 pm CST Saturday 23 July 2016 (issued every 10 minutes, with the page automatically refreshed every 10 minutes)

About weather observations | Map of Adelaide area stations | Latest observations for Adelaide area | Other Formats
Station Details ID: 023887 Name: KUITPO FOREST RESERVE Lat: -35.17 Lon: 138.68 Height: 365.0 m
Data from the previous 72 hours. | See also: Recent months at Kuitpo
Date/Time
CST
Temp
°C
App
Temp
°C
Dew
Point
°C
Rel
Hum
%
Delta-T
°C
Wind Press
QNH
hPa
Press
MSL
hPa
Rain since
9am
mm
Dir  Spd
km/h
Gust
km/h
Spd
kts
Gust
kts
23/10:30pm 6.0 2.9 5.4 96 0.3 N 11 20 6 11 1012.5 1012.8 1.0
23/10:00pm 5.7 2.5 5.0 95 0.3 NNW 11 20 6 11 1012.6 1012.9 1.0
23/09:30pm 6.1 3.0 5.4 95 0.3 NNW 11 20 6 11 1012.9 1013.2 1.0
23/09:00pm 6.4 3.7 5.8 96 0.3 NNW 9 13 5 7 1013.0 1013.3 1.0
23/08:30pm 6.2 2.7 5.6 96 0.3 NNW 13 19 7 10 1013.2 1013.5 1.0
23/08:00pm 6.5 3.1 5.9 96 0.3 NNW 13 22 7 12 1013.0 1013.3 0.8
23/07:30pm 6.3 3.6 5.7 96 0.3 NNW 9 15 5 8 1013.2 1013.5 0.8
23/07:00pm 6.1 3.4 5.4 95 0.3 N 9 13 5 7 1013.2 1013.5 0.8
23/06:30pm 5.9 3.1 5.0 94 0.4 NNW 9 11 5 6 1013.0 1013.3 0.8
23/06:00pm 5.9 3.0 4.7 92 0.5 NW 9 17 5 9 1013.0 1013.3 0.8
23/05:30pm 6.5 3.8 5.6 94 0.4 WNW 9 17 5 9 1013.0 1013.3 0.6
23/05:00pm 6.6 4.5 5.6 93 0.5 W 6 9 3 5 1012.8 1013.1 0.6
23/04:30pm 6.9 3.8 5.4 90 0.7 WSW 11 15 6 8 1012.8 1013.1 0.6
23/04:00pm 7.8 4.9 4.7 81 1.4 NW 9 20 5 11 1012.9 1013.2 0.2
23/03:30pm 7.6 4.4 5.1 84 1.1 WNW 11 19 6 10 1012.9 1013.2 0.0
23/03:00pm 6.8 2.4 4.6 86 1.0 WSW 17 28 9 15 1012.9 1013.2 0.0
23/02:30pm 9.0 4.2 2.8 65 2.7 W 17 24 9 13 1012.6 1012.9 0.0
23/02:00pm 8.8 3.6 2.6 65 2.7 W 19 28 10 15 1012.5 1012.8 0.0
23/01:30pm 9.5 4.3 2.4 61 3.1 WSW 19 32 10 17 1012.5 1012.8 0.0
23/01:00pm 9.8 4.6 2.2 59 3.3 W 19 32 10 17 1012.4 1012.7 0.0
23/12:30pm 9.9 5.2 3.2 63 3.0 WSW 17 30 9 16 1012.6 1012.9 0.0
23/12:00pm 9.9 4.9 3.4 64 2.9 W 19 30 10 16 1012.8 1013.1 0.0
23/11:30am 8.7 3.6 2.9 67 2.5 WSW 19 32 10 17 1013.0 1013.3 0.0
23/11:00am 9.4 4.4 3.4 66 2.7 WSW 19 30 10 16 1013.0 1013.3 0.0
23/10:30am 8.9 4.7 3.9 71 2.2 W 15 22 8 12 1012.9 1013.2 0.0
23/10:00am 8.4 4.7 4.4 76 1.8 WSW 13 19 7 10 1012.7 1013.0 0.0
23/09:30am 7.8 4.9 4.7 81 1.4 WSW 9 15 5 8 1012.4 1012.7 0.0
23/09:00am 7.3 4.1 5.1 86 1.0 WSW 11 15 6 8 1012.0 1012.3 4.4
23/08:30am 6.3 2.6 4.6 89 0.8 SW 13 17 7 9 1011.5 1011.8 4.4
23/08:00am 5.8 1.7 4.6 92 0.5 WSW 15 20 8 11 1011.1 1011.3 4.4
23/07:30am 5.7 2.0 4.5 92 0.5 WSW 13 19 7 10 1010.6 1010.8 4.2
23/07:00am 5.7 1.7 4.8 94 0.4 WSW 15 20 8 11 1009.9 1010.2 4.2
23/06:30am 6.0 1.7 5.1 94 0.4 SW 17 24 9 13 1009.4 1009.7 4.2
23/06:00am 6.6 2.8 5.6 93 0.5 SW 15 26 8 14 1009.1 1009.3 4.2
23/05:30am 6.7 1.8 5.3 91 0.6 WSW 20 33 11 18 1008.6 1008.8 4.2
23/05:00am 7.0 2.5 5.9 93 0.5 WSW 19 33 10 18 1008.2 1008.4 4.2
23/04:30am 6.9 2.7 5.8 93 0.5 WSW 17 28 9 15 1007.6 1007.8 4.2
23/04:00am 6.9 2.1 5.7 92 0.5 WSW 20 32 11 17 1007.1 1007.4 4.2
23/03:30am 6.8 2.0 5.6 92 0.5 WSW 20 30 11 16 1006.8 1007.0 4.2
23/03:00am 7.2 1.3 5.8 91 0.6 WSW 26 39 14 21 1006.8 1007.0 4.2
23/02:30am 7.3 2.2 5.8 90 0.7 WSW 22 37 12 20 1006.8 1007.0 4.2
23/02:00am 7.2 2.4 5.7 90 0.7 WSW 20 30 11 16 1006.7 1006.9 4.2
23/01:30am 7.3 2.1 5.4 88 0.9 WSW 22 35 12 19 1006.3 1006.5 4.2
23/01:00am 7.6 0.8 5.1 84 1.1 WSW 30 50 16 27 1005.9 1006.1 4.2
23/12:30am 7.7 0.8 4.8 82 1.3 WSW 30 52 16 28 1005.5 1005.7 4.2
23/12:00am 8.1 -0.1 4.9 80 1.5 WSW 37 61 20 33 1004.8 1005.0 4.2
 
Date/Time
CST
Temp
°C
App
Temp
°C
Dew
Point
°C
Rel
Hum
%
Delta-T
°C
Wind Press
QNH
hPa
Press
MSL
hPa
Rain since
9am
mm
Dir  Spd
km/h
Gust
km/h
Spd
kts
Gust
kts
22/11:30pm 7.7 0.3 5.2 84 1.1 W 33 56 18 30 1004.4 1004.6 4.2
22/11:00pm 7.5 0.5 5.8 89 0.8 WSW 32 57 17 31 1003.6 1003.8 4.2
22/10:33pm 7.0 0.8 6.1 94 0.4 WSW 28 50 15 27 1003.3 1003.5 4.0
22/10:30pm 7.0 1.2 6.1 94 0.4 WSW 26 46 14 25 1003.3 1003.5 4.0
22/10:00pm 7.2 -0.8 5.5 89 0.8 W 37 70 20 38 1002.4 1002.6 2.8
22/09:30pm 8.1 0.9 5.2 82 1.3 WNW 32 57 17 31 1001.6 1001.8 2.2
22/09:00pm 7.9 0.6 5.4 84 1.2 WNW 33 57 18 31 1001.6 1001.8 1.8
22/08:30pm 8.1 0.7 4.9 80 1.5 WNW 33 57 18 31 1001.5 1001.7 1.8
22/08:00pm 8.0 0.9 5.5 84 1.1 WNW 32 57 17 31 1001.3 1001.5 1.8
22/07:30pm 8.1 1.0 5.6 84 1.2 WNW 32 56 17 30 1001.0 1001.2 1.8
22/07:00pm 7.9 -0.4 4.1 77 1.7 W 37 69 20 37 1000.5 1000.7 1.8
22/06:30pm 6.7 -2.4 5.8 94 0.4 W 43 95 23 51 1000.2 1000.4 1.8
22/06:26pm 7.0 -2.1 5.8 92 0.5 W 43 95 23 51 1000.2 1000.4 1.8
22/06:25pm 7.0 -2.4 5.6 91 0.6 W 44 95 24 51 1000.1 1000.3 1.8
22/06:21pm 7.1 -2.2 5.1 87 0.9 W 43 95 23 51 999.6 999.7 1.8
22/06:20pm 7.4 -1.0 5.4 87 0.9 WNW 39 83 21 45 999.9 1000.0 1.6
22/06:00pm 8.7 1.7 6.8 88 0.9 WNW 33 57 18 31 999.5 999.6 1.0
22/05:30pm 8.0 0.9 6.6 91 0.7 WNW 33 52 18 28 999.0 999.1 1.0
22/05:00pm 8.1 0.0 7.2 94 0.4 W 39 65 21 35 998.6 998.8 0.8
22/04:30pm 9.6 2.3 7.4 86 1.1 WNW 35 59 19 32 998.4 998.6 0.0
22/04:00pm 10.0 2.2 6.7 80 1.6 WNW 37 72 20 39 998.3 998.5 0.0
22/03:59pm 10.0 2.2 6.7 80 1.6 WNW 37 72 20 39 998.3 998.5 0.0
22/03:34pm 10.6 4.2 8.7 88 1.0 NW 32 52 17 28 997.9 998.1 0.0
22/03:30pm 10.6 4.7 9.2 91 0.7 NW 30 46 16 25 997.9 998.1 0.0
22/03:00pm 10.8 5.4 9.4 91 0.7 NW 28 48 15 26 997.8 998.0 0.0
22/02:44pm 11.2 5.3 9.1 87 1.1 NW 30 54 16 29 997.8 998.0 0.0
22/02:30pm 11.8 6.7 9.2 84 1.3 WNW 26 44 14 24 997.9 998.1 0.0
22/02:13pm 11.4 5.6 9.3 87 1.1 WNW 30 52 16 28 997.9 998.1 0.0
22/02:00pm 11.5 7.0 10.1 91 0.7 NW 24 39 13 21 998.0 998.2 0.0
22/01:30pm 11.3 5.7 10.2 93 0.6 NW 30 56 16 30 998.2 998.4 0.0
22/01:00pm 11.4 6.1 9.8 90 0.8 NW 28 46 15 25 998.7 998.9 0.0
22/12:33pm 11.5 6.2 9.8 89 0.9 NW 28 46 15 25 999.3 999.4 0.0
22/12:30pm 11.5 6.6 9.8 89 0.9 NW 26 46 14 25 999.3 999.4 0.0
22/12:08pm 11.7 6.4 9.9 89 0.9 NW 28 46 15 25 999.5 999.6 0.0
22/12:00pm 11.7 6.8 9.9 89 0.9 NW 26 43 14 23 999.5 999.6 0.0
22/11:30am 11.4 5.6 9.5 88 1.0 NW 30 54 16 29 1000.1 1000.3 0.0
22/11:15am 11.2 5.8 9.6 90 0.8 NW 28 48 15 26 1000.2 1000.4 0.0
22/11:00am 11.4 6.5 10.1 92 0.7 NW 26 44 14 24 1000.5 1000.7 0.0
22/10:49am 11.4 6.2 10.1 92 0.7 NW 28 46 15 25 1000.7 1000.9 0.0
22/10:30am 11.4 6.9 10.1 92 0.7 NW 24 43 13 23 1001.1 1001.3 0.0
22/10:20am 11.3 6.0 10.0 92 0.7 NW 28 48 15 26 1001.1 1001.3 0.0
22/10:00am 11.2 6.0 10.3 94 0.5 NW 28 43 15 23 1001.4 1001.6 0.0
22/09:30am 11.3 6.6 10.5 95 0.4 NW 26 43 14 23 1001.4 1001.6 0.0
22/09:12am 11.3 6.2 10.7 96 0.3 NW 28 48 15 26 1001.5 1001.7 0.0
22/09:00am 11.3 7.0 10.7 96 0.3 NW 24 39 13 21 1001.8 1001.9 1.2
22/08:30am 11.4 6.4 10.9 97 0.3 NW 28 46 15 25 1001.6 1001.8 1.2
22/08:21am 11.4 6.4 10.9 97 0.3 NW 28 46 15 25 1001.8 1001.9 1.2
22/08:00am 11.4 7.1 10.8 96 0.3 NW 24 41 13 22 1001.5 1001.7 1.2
22/07:30am 11.5 7.2 10.7 95 0.4 NW 24 39 13 21 1001.3 1001.5 1.2
22/07:00am 11.5 7.6 10.7 95 0.4 NW 22 41 12 22 1001.4 1001.6 1.2
22/06:30am 11.4 7.1 10.8 96 0.3 NW 24 37 13 20 1001.4 1001.6 1.2
22/06:00am 11.7 6.8 11.2 97 0.3 WNW 28 43 15 23 1001.8 1001.9 1.2
22/05:30am 11.7 6.8 11.2 97 0.3 WNW 28 46 15 25 1001.2 1001.4 1.2
22/05:00am 11.8 8.0 11.3 97 0.3 WNW 22 37 12 20 1001.4 1001.6 1.0
22/04:47am 12.0 7.1 11.4 96 0.3 NW 28 48 15 26 1001.4 1001.6 1.0
22/04:30am 12.2 8.5 11.4 95 0.4 NW 22 35 12 19 1001.3 1001.5 0.8
22/04:00am 12.5 8.3 11.2 92 0.7 NW 24 44 13 24 1001.9 1002.0 0.8
22/03:30am 12.7 9.3 11.1 90 0.9 NW 20 33 11 18 1001.8 1001.9 0.8
22/03:00am 12.5 9.1 11.4 93 0.6 NNW 20 32 11 17 1001.9 1002.0 0.8
22/02:30am 12.5 9.8 11.7 95 0.4 NNW 17 24 9 13 1002.1 1002.2 0.8
22/02:00am 12.7 10.7 11.6 93 0.6 NNW 13 20 7 11 1002.6 1002.8 0.6
22/01:30am 12.8 10.4 11.5 92 0.7 NW 15 26 8 14 1003.0 1003.2 0.6
22/01:00am 13.7 11.2 11.2 85 1.3 WNW 15 26 8 14 1003.5 1003.7 0.4
22/12:30am 14.1 10.7 11.3 83 1.5 WNW 20 33 11 18 1003.6 1003.8 0.2
22/12:00am 14.9 11.6 11.7 81 1.8 WNW 20 33 11 18 1003.8 1004.0 0.2
 
Date/Time
CST
Temp
°C
App
Temp
°C
Dew
Point
°C
Rel
Hum
%
Delta-T
°C
Wind Press
QNH
hPa
Press
MSL
hPa
Rain since
9am
mm
Dir  Spd
km/h
Gust
km/h
Spd
kts
Gust
kts
21/11:30pm 16.0 12.0 13.1 83 1.6 WNW 26 44 14 24 1003.6 1003.8 0.2
21/11:03pm 17.6 12.9 13.1 75 2.6 WNW 30 48 16 26 1003.3 1003.5 0.2
21/11:00pm 18.2 13.1 13.1 72 2.9 NW 32 48 17 26 1003.0 1003.2 0.2
21/10:30pm 18.2 12.7 13.5 74 2.7 NNW 35 61 19 33 1003.1 1003.3 0.0
21/10:00pm 19.0 13.9 13.0 68 3.4 NNW 32 59 17 32 1003.1 1003.3 0.0
21/09:30pm 19.0 14.6 13.0 68 3.5 NNW 28 48 15 26 1003.6 1003.8 0.0
21/09:00pm 19.1 14.0 13.1 68 3.5 NNW 32 54 17 29 1003.9 1004.1 0.0
21/08:30pm 19.3 14.3 13.3 68 3.5 NNW 32 54 17 29 1004.4 1004.6 0.0
21/08:00pm 18.9 14.7 13.5 71 3.1 NNW 28 48 15 26 1004.3 1004.5 0.0
21/07:30pm 18.8 14.7 13.9 73 2.9 NNW 28 56 15 30 1004.4 1004.6 0.0
21/07:10pm 18.6 14.5 13.9 74 2.7 NNW 28 48 15 26 1004.7 1004.9 0.0
21/07:00pm 18.6 14.9 13.9 74 2.7 NNW 26 50 14 27 1004.9 1005.1 0.0
21/06:38pm 18.7 14.7 14.0 74 2.7 NNW 28 50 15 27 1004.9 1005.1 0.0
21/06:30pm 18.4 14.8 14.1 76 2.5 NNW 26 48 14 26 1005.1 1005.3 0.0
21/06:00pm 18.3 14.9 13.8 75 2.6 N 24 39 13 21 1005.2 1005.4 0.0
21/05:30pm 18.0 15.4 13.7 76 2.5 N 20 32 11 17 1005.9 1006.1 0.0
21/05:00pm 18.1 15.7 13.8 76 2.5 N 19 44 10 24 1006.1 1006.3 0.0
21/04:30pm 18.2 15.8 13.7 75 2.6 N 19 33 10 18 1006.4 1006.6 0.0
21/04:00pm 19.0 16.8 14.5 75 2.7 N 19 35 10 19 1006.5 1006.7 0.0
21/03:30pm 18.9 16.6 14.2 74 2.8 N 19 37 10 20 1007.2 1007.5 0.0
21/03:00pm 19.6 16.8 14.2 71 3.2 NNW 22 46 12 25 1007.6 1007.8 0.0
21/02:30pm 19.9 16.5 13.6 67 3.7 NNW 24 46 13 25 1008.5 1008.7 0.0
21/02:00pm 19.7 17.1 13.9 69 3.4 N 20 32 11 17 1008.5 1008.7 0.0
21/01:30pm 19.1 16.5 13.3 69 3.4 N 19 30 10 16 1009.0 1009.2 0.0
21/01:00pm 18.1 15.5 13.2 73 2.8 NNW 19 32 10 17 1009.7 1010.0 0.0
21/12:30pm 18.4 15.4 12.6 69 3.3 NNW 20 35 11 19 1010.5 1010.7 0.0
21/12:00pm 18.6 15.6 12.6 68 3.4 NNW 20 32 11 17 1011.2 1011.4 0.0
21/11:30am 17.9 14.6 11.5 66 3.6 NNW 20 39 11 21 1011.9 1012.2 0.0
21/11:00am 17.7 14.9 11.5 67 3.4 NNW 17 30 9 16 1012.4 1012.7 0.0
21/10:30am 17.7 15.3 11.5 67 3.4 NNW 15 22 8 12 1012.6 1012.9 0.0
21/10:00am 16.9 14.2 11.6 71 2.9 NNW 17 26 9 14 1012.8 1013.1 0.0
21/09:30am 16.1 14.2 11.9 76 2.3 NNW 13 22 7 12 1012.9 1013.2 0.0
21/09:00am 15.3 13.4 11.9 80 1.9 N 13 22 7 12 1012.8 1013.1 0.2
21/08:30am 13.4 11.1 11.6 89 1.0 N 15 24 8 13 1013.0 1013.3 0.2
21/08:00am 12.7 10.7 11.4 92 0.7 N 13 20 7 11 1013.1 1013.4 0.2
21/07:30am 12.3 10.3 11.4 94 0.5 N 13 19 7 10 1013.2 1013.5 0.2
21/07:00am 12.5 10.2 11.7 95 0.4 N 15 20 8 11 1013.1 1013.4 0.2
21/06:30am 12.3 10.3 11.5 95 0.4 N 13 20 7 11 1013.4 1013.6 0.2
21/06:00am 12.3 10.3 11.5 95 0.4 NNW 13 20 7 11 1013.2 1013.5 0.2
21/05:30am 12.4 10.0 11.5 94 0.5 NNW 15 24 8 13 1013.4 1013.6 0.2
21/05:00am 12.5 10.2 11.7 95 0.4 NNW 15 24 8 13 1013.5 1013.7 0.2
21/04:30am 12.4 10.5 11.8 96 0.3 NNW 13 20 7 11 1013.4 1013.6 0.2
21/04:00am 12.7 10.5 12.1 96 0.3 N 15 20 8 11 1013.6 1013.8 0.2
21/03:30am 12.8 11.4 12.2 96 0.3 N 11 20 6 11 1014.1 1014.4 0.2
21/03:00am 13.0 11.3 12.4 96 0.3 NNW 13 19 7 10 1014.7 1015.0 0.2
21/02:30am 12.9 11.5 12.3 96 0.3 N 11 17 6 9 1014.8 1015.1 0.2
21/02:00am 12.9 11.2 12.4 97 0.3 NNW 13 19 7 10 1015.1 1015.4 0.2
21/01:30am 12.6 10.9 12.3 98 0.2 N 13 20 7 11 1015.5 1015.8 0.2
21/01:00am 12.2 10.7 11.9 98 0.2 N 11 17 6 9 1015.6 1015.9 0.2
21/12:30am 11.9 10.7 11.6 98 0.2 N 9 15 5 8 1015.7 1016.0 0.2
21/12:00am 11.6 10.3 11.3 98 0.2 NNE 9 13 5 7 1016.0 1016.3 0.2
 
Date/Time
CST
Temp
°C
App
Temp
°C
Dew
Point
°C
Rel
Hum
%
Delta-T
°C
Wind Press
QNH
hPa
Press
MSL
hPa
Rain since
9am
mm
Dir  Spd
km/h
Gust
km/h
Spd
kts
Gust
kts
20/11:30pm 11.4 10.1 11.2 99 0.1 NNE 9 13 5 7 1016.3 1016.6 0.2
20/11:00pm 11.3 9.5 11.0 98 0.2 NNE 11 15 6 8 1016.5 1016.8 0.2

Latest Capital City Observations: Canberra | Sydney | Melbourne | Brisbane | Adelaide | Perth | Hobart | Darwin

Other Formats:

Comma delimited format used in spreadsheet applications
http://www.bom.gov.au/fwo/IDS60901/IDS60901.94683.axf

JavaScript Object Notation format (JSON) in row-major order
http://www.bom.gov.au/fwo/IDS60901/IDS60901.94683.json